sensor_id;sensor_type;location;lat;lon;timestamp;P1;durP1;ratioP1;P2;durP2;ratioP2
6928;SDS011;3504;52.616;13.238;2023-01-01T00:03:59;18.67;;;13.67;;
6928;SDS011;3504;52.616;13.238;2023-01-01T00:08:59;22.40;;;13.07;;
6928;SDS011;3504;52.616;13.238;2023-01-01T00:14:18;16.53;;;11.77;;
6928;SDS011;3504;52.616;13.238;2023-01-01T00:19:19;19.37;;;11.60;;
6928;SDS011;3504;52.616;13.238;2023-01-01T00:24:19;11.90;;;7.50;;
6928;SDS011;3504;52.616;13.238;2023-01-01T00:29:20;14.43;;;7.03;;
6928;SDS011;3504;52.616;13.238;2023-01-01T00:34:20;16.97;;;10.43;;
6928;SDS011;3504;52.616;13.238;2023-01-01T00:39:21;10.80;;;6.37;;
6928;SDS011;3504;52.616;13.238;2023-01-01T00:44:21;9.67;;;6.20;;
6928;SDS011;3504;52.616;13.238;2023-01-01T00:49:22;10.93;;;5.10;;
6928;SDS011;3504;52.616;13.238;2023-01-01T00:54:22;9.03;;;6.23;;
6928;SDS011;3504;52.616;13.238;2023-01-01T00:59:23;10.23;;;4.87;;
6928;SDS011;3504;52.616;13.238;2023-01-01T01:04:23;8.90;;;4.10;;
6928;SDS011;3504;52.616;13.238;2023-01-01T01:09:24;9.77;;;4.50;;
6928;SDS011;3504;52.616;13.238;2023-01-01T01:14:25;7.07;;;3.07;;
6928;SDS011;3504;52.616;13.238;2023-01-01T01:19:25;8.20;;;3.57;;
6928;SDS011;3504;52.616;13.238;2023-01-01T01:24:26;4.80;;;3.33;;
6928;SDS011;3504;52.616;13.238;2023-01-01T01:29:26;10.13;;;3.50;;
6928;SDS011;3504;52.616;13.238;2023-01-01T01:34:27;9.33;;;3.60;;
6928;SDS011;3504;52.616;13.238;2023-01-01T01:39:28;6.67;;;3.70;;
6928;SDS011;3504;52.616;13.238;2023-01-01T01:44:48;8.17;;;3.70;;
6928;SDS011;3504;52.616;13.238;2023-01-01T01:49:56;9.60;;;3.60;;
6928;SDS011;3504;52.616;13.238;2023-01-01T01:55:15;6.67;;;3.47;;
6928;SDS011;3504;52.616;13.238;2023-01-01T02:00:16;5.50;;;3.53;;
6928;SDS011;3504;52.616;13.238;2023-01-01T02:05:17;10.93;;;3.87;;
6928;SDS011;3504;52.616;13.238;2023-01-01T02:10:19;7.20;;;4.23;;
6928;SDS011;3504;52.616;13.238;2023-01-01T02:15:20;9.37;;;4.93;;
6928;SDS011;3504;52.616;13.238;2023-01-01T02:20:29;11.50;;;4.77;;
6928;SDS011;3504;52.616;13.238;2023-01-01T02:25:48;7.43;;;4.77;;
6928;SDS011;3504;52.616;13.238;2023-01-01T02:30:59;13.57;;;5.77;;
6928;SDS011;3504;52.616;13.238;2023-01-01T02:36:01;9.73;;;5.77;;
6928;SDS011;3504;52.616;13.238;2023-01-01T02:41:09;10.47;;;5.57;;
6928;SDS011;3504;52.616;13.238;2023-01-01T02:46:14;11.77;;;5.23;;
6928;SDS011;3504;52.616;13.238;2023-01-01T02:57:25;11.30;;;5.40;;
6928;SDS011;3504;52.616;13.238;2023-01-01T03:13:17;11.80;;;5.07;;
6928;SDS011;3504;52.616;13.238;2023-01-01T03:18:33;7.90;;;4.60;;
6928;SDS011;3504;52.616;13.238;2023-01-01T03:23:47;11.07;;;4.50;;
6928;SDS011;3504;52.616;13.238;2023-01-01T03:28:54;9.27;;;4.50;;
6928;SDS011;3504;52.616;13.238;2023-01-01T03:33:59;7.13;;;4.17;;
6928;SDS011;3504;52.616;13.238;2023-01-01T03:39:07;9.30;;;4.40;;
6928;SDS011;3504;52.616;13.238;2023-01-01T03:49:32;11.47;;;4.50;;
6928;SDS011;3504;52.616;13.238;2023-01-01T03:54:35;7.77;;;4.57;;
6928;SDS011;3504;52.616;13.238;2023-01-01T03:59:58;8.03;;;4.40;;
6928;SDS011;3504;52.616;13.238;2023-01-01T04:05:15;10.67;;;4.67;;
6928;SDS011;3504;52.616;13.238;2023-01-01T04:10:17;10.23;;;4.93;;
6928;SDS011;3504;52.616;13.238;2023-01-01T04:15:20;8.90;;;4.20;;
6928;SDS011;3504;52.616;13.238;2023-01-01T04:20:24;6.90;;;4.57;;
6928;SDS011;3504;52.616;13.238;2023-01-01T04:25:25;9.83;;;4.70;;
6928;SDS011;3504;52.616;13.238;2023-01-01T04:30:26;13.97;;;5.03;;
6928;SDS011;3504;52.616;13.238;2023-01-01T04:35:27;11.40;;;5.13;;
6928;SDS011;3504;52.616;13.238;2023-01-01T04:40:27;9.23;;;4.50;;
6928;SDS011;3504;52.616;13.238;2023-01-01T04:45:28;10.20;;;4.57;;
6928;SDS011;3504;52.616;13.238;2023-01-01T04:50:28;8.90;;;5.10;;
6928;SDS011;3504;52.616;13.238;2023-01-01T04:55:29;10.47;;;4.77;;
6928;SDS011;3504;52.616;13.238;2023-01-01T05:00:29;9.90;;;5.00;;
6928;SDS011;3504;52.616;13.238;2023-01-01T05:05:30;12.07;;;5.43;;
6928;SDS011;3504;52.616;13.238;2023-01-01T05:10:30;10.87;;;4.47;;
6928;SDS011;3504;52.616;13.238;2023-01-01T05:15:31;8.83;;;4.60;;
6928;SDS011;3504;52.616;13.238;2023-01-01T05:20:33;8.73;;;4.33;;
6928;SDS011;3504;52.616;13.238;2023-01-01T05:25:34;11.47;;;4.67;;
6928;SDS011;3504;52.616;13.238;2023-01-01T05:30:37;9.90;;;4.83;;
6928;SDS011;3504;52.616;13.238;2023-01-01T05:35:39;7.83;;;4.03;;
6928;SDS011;3504;52.616;13.238;2023-01-01T05:40:40;9.17;;;4.63;;
6928;SDS011;3504;52.616;13.238;2023-01-01T05:45:40;10.87;;;4.60;;
6928;SDS011;3504;52.616;13.238;2023-01-01T05:50:41;9.50;;;4.50;;
6928;SDS011;3504;52.616;13.238;2023-01-01T05:55:41;7.67;;;4.40;;
6928;SDS011;3504;52.616;13.238;2023-01-01T06:00:42;8.20;;;3.67;;
6928;SDS011;3504;52.616;13.238;2023-01-01T06:05:42;7.87;;;3.77;;
6928;SDS011;3504;52.616;13.238;2023-01-01T06:10:43;8.40;;;4.20;;
6928;SDS011;3504;52.616;13.238;2023-01-01T06:15:43;6.47;;;4.23;;
6928;SDS011;3504;52.616;13.238;2023-01-01T06:20:54;11.20;;;4.33;;
6928;SDS011;3504;52.616;13.238;2023-01-01T06:25:55;8.20;;;4.23;;
6928;SDS011;3504;52.616;13.238;2023-01-01T06:31:00;6.47;;;3.90;;
6928;SDS011;3504;52.616;13.238;2023-01-01T06:36:06;9.83;;;4.07;;
6928;SDS011;3504;52.616;13.238;2023-01-01T06:41:10;8.47;;;4.17;;
6928;SDS011;3504;52.616;13.238;2023-01-01T06:51:28;8.47;;;4.40;;
6928;SDS011;3504;52.616;13.238;2023-01-01T06:56:30;8.67;;;3.90;;
6928;SDS011;3504;52.616;13.238;2023-01-01T07:01:32;7.87;;;4.30;;
6928;SDS011;3504;52.616;13.238;2023-01-01T07:06:34;7.07;;;4.53;;
6928;SDS011;3504;52.616;13.238;2023-01-01T07:11:35;9.17;;;4.30;;
6928;SDS011;3504;52.616;13.238;2023-01-01T07:16:36;8.07;;;3.97;;
6928;SDS011;3504;52.616;13.238;2023-01-01T07:21:50;6.00;;;3.67;;
6928;SDS011;3504;52.616;13.238;2023-01-01T07:26:53;8.80;;;3.77;;
6928;SDS011;3504;52.616;13.238;2023-01-01T07:31:53;9.83;;;4.37;;
6928;SDS011;3504;52.616;13.238;2023-01-01T07:36:54;10.30;;;4.73;;
6928;SDS011;3504;52.616;13.238;2023-01-01T07:41:55;8.70;;;4.23;;
6928;SDS011;3504;52.616;13.238;2023-01-01T07:47:19;9.73;;;4.90;;
6928;SDS011;3504;52.616;13.238;2023-01-01T07:52:26;5.33;;;3.77;;
6928;SDS011;3504;52.616;13.238;2023-01-01T07:57:27;6.17;;;3.80;;
6928;SDS011;3504;52.616;13.238;2023-01-01T08:02:27;9.77;;;4.40;;
6928;SDS011;3504;52.616;13.238;2023-01-01T08:07:28;8.63;;;4.27;;
6928;SDS011;3504;52.616;13.238;2023-01-01T08:12:28;7.50;;;4.60;;
6928;SDS011;3504;52.616;13.238;2023-01-01T08:17:29;7.23;;;4.43;;
6928;SDS011;3504;52.616;13.238;2023-01-01T08:22:29;8.93;;;5.03;;
6928;SDS011;3504;52.616;13.238;2023-01-01T08:27:30;8.20;;;5.17;;
6928;SDS011;3504;52.616;13.238;2023-01-01T08:32:30;10.53;;;4.83;;
6928;SDS011;3504;52.616;13.238;2023-01-01T08:37:31;8.07;;;5.47;;
6928;SDS011;3504;52.616;13.238;2023-01-01T08:42:31;10.50;;;5.37;;
6928;SDS011;3504;52.616;13.238;2023-01-01T08:47:32;8.20;;;5.00;;
6928;SDS011;3504;52.616;13.238;2023-01-01T08:52:32;8.57;;;5.53;;
6928;SDS011;3504;52.616;13.238;2023-01-01T08:57:33;8.57;;;5.47;;
6928;SDS011;3504;52.616;13.238;2023-01-01T09:02:33;9.23;;;5.33;;
6928;SDS011;3504;52.616;13.238;2023-01-01T09:07:34;10.93;;;5.23;;
6928;SDS011;3504;52.616;13.238;2023-01-01T09:12:34;10.33;;;6.67;;
6928;SDS011;3504;52.616;13.238;2023-01-01T09:17:36;8.60;;;5.37;;
6928;SDS011;3504;52.616;13.238;2023-01-01T09:22:37;11.93;;;5.57;;
6928;SDS011;3504;52.616;13.238;2023-01-01T09:27:37;10.07;;;5.50;;
6928;SDS011;3504;52.616;13.238;2023-01-01T09:32:38;12.73;;;5.47;;
6928;SDS011;3504;52.616;13.238;2023-01-01T09:37:38;10.60;;;5.20;;
6928;SDS011;3504;52.616;13.238;2023-01-01T09:42:47;9.97;;;5.40;;
6928;SDS011;3504;52.616;13.238;2023-01-01T09:47:57;7.23;;;5.07;;
6928;SDS011;3504;52.616;13.238;2023-01-01T09:53:24;10.17;;;5.17;;
6928;SDS011;3504;52.616;13.238;2023-01-01T09:58:37;8.30;;;4.53;;
6928;SDS011;3504;52.616;13.238;2023-01-01T10:03:56;5.90;;;4.37;;
6928;SDS011;3504;52.616;13.238;2023-01-01T10:20:42;6.27;;;4.43;;
6928;SDS011;3504;52.616;13.238;2023-01-01T10:25:46;6.00;;;4.40;;
6928;SDS011;3504;52.616;13.238;2023-01-01T10:30:47;8.53;;;4.63;;
6928;SDS011;3504;52.616;13.238;2023-01-01T10:35:51;5.70;;;4.07;;
6928;SDS011;3504;52.616;13.238;2023-01-01T10:40:58;7.43;;;4.67;;
6928;SDS011;3504;52.616;13.238;2023-01-01T10:46:06;9.07;;;4.23;;
6928;SDS011;3504;52.616;13.238;2023-01-01T10:51:14;7.20;;;4.00;;
6928;SDS011;3504;52.616;13.238;2023-01-01T10:56:20;15.57;;;8.83;;
6928;SDS011;3504;52.616;13.238;2023-01-01T11:01:24;6.47;;;4.70;;
6928;SDS011;3504;52.616;13.238;2023-01-01T11:07:03;9.80;;;4.10;;
6928;SDS011;3504;52.616;13.238;2023-01-01T11:12:04;6.93;;;4.07;;
6928;SDS011;3504;52.616;13.238;2023-01-01T11:17:07;6.27;;;3.90;;
6928;SDS011;3504;52.616;13.238;2023-01-01T11:22:14;6.43;;;3.77;;
6928;SDS011;3504;52.616;13.238;2023-01-01T11:27:41;7.60;;;4.57;;
6928;SDS011;3504;52.616;13.238;2023-01-01T11:32:41;5.57;;;3.37;;
6928;SDS011;3504;52.616;13.238;2023-01-01T11:37:42;6.33;;;4.30;;
6928;SDS011;3504;52.616;13.238;2023-01-01T11:42:48;8.60;;;3.67;;
6928;SDS011;3504;52.616;13.238;2023-01-01T11:47:58;5.37;;;3.27;;
6928;SDS011;3504;52.616;13.238;2023-01-01T11:58:26;5.67;;;3.37;;
6928;SDS011;3504;52.616;13.238;2023-01-01T12:03:40;5.50;;;2.87;;
6928;SDS011;3504;52.616;13.238;2023-01-01T12:08:53;6.53;;;3.77;;
6928;SDS011;3504;52.616;13.238;2023-01-01T12:20:24;6.20;;;3.37;;
6928;SDS011;3504;52.616;13.238;2023-01-01T12:25:34;5.80;;;3.70;;
6928;SDS011;3504;52.616;13.238;2023-01-01T12:30:42;6.33;;;3.53;;
6928;SDS011;3504;52.616;13.238;2023-01-01T12:35:53;6.47;;;3.37;;
6928;SDS011;3504;52.616;13.238;2023-01-01T12:41:03;7.03;;;3.40;;
6928;SDS011;3504;52.616;13.238;2023-01-01T12:52:10;6.60;;;3.00;;
6928;SDS011;3504;52.616;13.238;2023-01-01T12:57:31;5.87;;;2.63;;
6928;SDS011;3504;52.616;13.238;2023-01-01T13:02:53;5.13;;;3.00;;
6928;SDS011;3504;52.616;13.238;2023-01-01T13:08:03;6.03;;;3.27;;
6928;SDS011;3504;52.616;13.238;2023-01-01T13:13:04;13.90;;;5.03;;
6928;SDS011;3504;52.616;13.238;2023-01-01T13:28:30;6.60;;;3.27;;
6928;SDS011;3504;52.616;13.238;2023-01-01T13:33:30;7.37;;;3.17;;
6928;SDS011;3504;52.616;13.238;2023-01-01T13:38:46;5.57;;;3.80;;
6928;SDS011;3504;52.616;13.238;2023-01-01T13:54:39;8.03;;;3.00;;
6928;SDS011;3504;52.616;13.238;2023-01-01T14:00:22;6.53;;;2.90;;
6928;SDS011;3504;52.616;13.238;2023-01-01T14:05:54;5.00;;;2.93;;
6928;SDS011;3504;52.616;13.238;2023-01-01T14:10:59;5.40;;;2.73;;
6928;SDS011;3504;52.616;13.238;2023-01-01T14:16:02;5.73;;;3.23;;
6928;SDS011;3504;52.616;13.238;2023-01-01T14:21:11;7.77;;;3.43;;
6928;SDS011;3504;52.616;13.238;2023-01-01T14:26:21;8.73;;;3.23;;
6928;SDS011;3504;52.616;13.238;2023-01-01T14:31:27;6.50;;;4.17;;
6928;SDS011;3504;52.616;13.238;2023-01-01T14:36:33;7.90;;;4.10;;
6928;SDS011;3504;52.616;13.238;2023-01-01T14:41:38;7.83;;;3.20;;
6928;SDS011;3504;52.616;13.238;2023-01-01T14:46:45;5.47;;;3.20;;
6928;SDS011;3504;52.616;13.238;2023-01-01T14:51:52;5.90;;;3.00;;
6928;SDS011;3504;52.616;13.238;2023-01-01T14:57:00;4.73;;;2.73;;
6928;SDS011;3504;52.616;13.238;2023-01-01T15:07:18;4.77;;;2.87;;
6928;SDS011;3504;52.616;13.238;2023-01-01T15:12:29;8.33;;;3.97;;
6928;SDS011;3504;52.616;13.238;2023-01-01T15:17:45;6.57;;;3.60;;
6928;SDS011;3504;52.616;13.238;2023-01-01T15:22:47;6.97;;;3.17;;
6928;SDS011;3504;52.616;13.238;2023-01-01T15:27:49;6.70;;;3.10;;
6928;SDS011;3504;52.616;13.238;2023-01-01T15:32:53;4.43;;;3.00;;
6928;SDS011;3504;52.616;13.238;2023-01-01T15:37:56;5.53;;;3.37;;
6928;SDS011;3504;52.616;13.238;2023-01-01T15:53:25;4.30;;;2.93;;
6928;SDS011;3504;52.616;13.238;2023-01-01T15:58:34;3.43;;;2.60;;
6928;SDS011;3504;52.616;13.238;2023-01-01T16:04:06;4.00;;;2.80;;
6928;SDS011;3504;52.616;13.238;2023-01-01T16:09:10;4.07;;;2.87;;
6928;SDS011;3504;52.616;13.238;2023-01-01T16:14:12;8.37;;;4.50;;
6928;SDS011;3504;52.616;13.238;2023-01-01T16:19:16;8.97;;;4.20;;
6928;SDS011;3504;52.616;13.238;2023-01-01T16:24:18;7.80;;;4.20;;
6928;SDS011;3504;52.616;13.238;2023-01-01T16:29:19;8.87;;;5.33;;
6928;SDS011;3504;52.616;13.238;2023-01-01T16:34:19;11.53;;;6.23;;
6928;SDS011;3504;52.616;13.238;2023-01-01T16:39:22;8.03;;;4.53;;
6928;SDS011;3504;52.616;13.238;2023-01-01T16:44:22;8.17;;;6.13;;
6928;SDS011;3504;52.616;13.238;2023-01-01T16:49:23;9.00;;;6.00;;
6928;SDS011;3504;52.616;13.238;2023-01-01T16:54:23;9.20;;;5.63;;
6928;SDS011;3504;52.616;13.238;2023-01-01T16:59:24;11.30;;;7.10;;
6928;SDS011;3504;52.616;13.238;2023-01-01T17:04:24;8.80;;;5.80;;
6928;SDS011;3504;52.616;13.238;2023-01-01T17:09:26;10.03;;;5.33;;
6928;SDS011;3504;52.616;13.238;2023-01-01T17:14:27;11.17;;;5.93;;
6928;SDS011;3504;52.616;13.238;2023-01-01T17:19:28;9.87;;;5.57;;
6928;SDS011;3504;52.616;13.238;2023-01-01T17:24:28;9.77;;;6.07;;
6928;SDS011;3504;52.616;13.238;2023-01-01T17:29:29;14.77;;;7.83;;
6928;SDS011;3504;52.616;13.238;2023-01-01T17:34:29;10.07;;;7.53;;
6928;SDS011;3504;52.616;13.238;2023-01-01T17:39:30;17.37;;;10.30;;
6928;SDS011;3504;52.616;13.238;2023-01-01T17:44:30;17.73;;;12.00;;
6928;SDS011;3504;52.616;13.238;2023-01-01T17:49:31;25.53;;;12.67;;
6928;SDS011;3504;52.616;13.238;2023-01-01T17:54:31;16.17;;;11.07;;
6928;SDS011;3504;52.616;13.238;2023-01-01T17:59:32;19.53;;;12.90;;
6928;SDS011;3504;52.616;13.238;2023-01-01T18:04:32;19.50;;;14.30;;
6928;SDS011;3504;52.616;13.238;2023-01-01T18:09:33;25.33;;;18.53;;
6928;SDS011;3504;52.616;13.238;2023-01-01T18:14:37;26.17;;;17.53;;
6928;SDS011;3504;52.616;13.238;2023-01-01T18:19:39;25.83;;;18.80;;
6928;SDS011;3504;52.616;13.238;2023-01-01T18:24:39;24.07;;;18.60;;
6928;SDS011;3504;52.616;13.238;2023-01-01T18:29:43;25.47;;;17.57;;
6928;SDS011;3504;52.616;13.238;2023-01-01T18:34:43;22.40;;;15.40;;
6928;SDS011;3504;52.616;13.238;2023-01-01T18:39:45;25.63;;;16.53;;
6928;SDS011;3504;52.616;13.238;2023-01-01T18:44:46;24.27;;;15.97;;
6928;SDS011;3504;52.616;13.238;2023-01-01T18:50:13;23.67;;;17.37;;
6928;SDS011;3504;52.616;13.238;2023-01-01T18:55:16;29.60;;;19.80;;
6928;SDS011;3504;52.616;13.238;2023-01-01T19:00:24;18.97;;;15.00;;
6928;SDS011;3504;52.616;13.238;2023-01-01T19:05:31;20.67;;;16.13;;
6928;SDS011;3504;52.616;13.238;2023-01-01T19:10:39;19.87;;;12.83;;
6928;SDS011;3504;52.616;13.238;2023-01-01T19:15:44;17.73;;;12.87;;
6928;SDS011;3504;52.616;13.238;2023-01-01T19:20:48;24.13;;;15.90;;
6928;SDS011;3504;52.616;13.238;2023-01-01T19:25:58;22.07;;;13.57;;
6928;SDS011;3504;52.616;13.238;2023-01-01T19:31:03;16.60;;;13.17;;
6928;SDS011;3504;52.616;13.238;2023-01-01T19:36:05;17.80;;;12.23;;
6928;SDS011;3504;52.616;13.238;2023-01-01T19:41:06;23.77;;;14.73;;
6928;SDS011;3504;52.616;13.238;2023-01-01T19:46:07;22.17;;;16.00;;
6928;SDS011;3504;52.616;13.238;2023-01-01T19:51:07;17.77;;;12.20;;
6928;SDS011;3504;52.616;13.238;2023-01-01T19:56:08;18.50;;;13.47;;
6928;SDS011;3504;52.616;13.238;2023-01-01T20:01:09;14.43;;;9.97;;
6928;SDS011;3504;52.616;13.238;2023-01-01T20:06:10;16.10;;;8.97;;
6928;SDS011;3504;52.616;13.238;2023-01-01T20:11:11;11.50;;;8.37;;
6928;SDS011;3504;52.616;13.238;2023-01-01T20:16:11;11.23;;;7.47;;
6928;SDS011;3504;52.616;13.238;2023-01-01T20:21:12;11.80;;;7.13;;
6928;SDS011;3504;52.616;13.238;2023-01-01T20:26:31;8.90;;;6.90;;
6928;SDS011;3504;52.616;13.238;2023-01-01T20:31:31;11.63;;;6.93;;
6928;SDS011;3504;52.616;13.238;2023-01-01T20:36:32;10.40;;;6.33;;
6928;SDS011;3504;52.616;13.238;2023-01-01T20:41:51;13.13;;;7.17;;
6928;SDS011;3504;52.616;13.238;2023-01-01T20:46:52;9.10;;;5.60;;
6928;SDS011;3504;52.616;13.238;2023-01-01T20:51:52;10.03;;;6.30;;
6928;SDS011;3504;52.616;13.238;2023-01-01T20:56:53;12.00;;;6.17;;
6928;SDS011;3504;52.616;13.238;2023-01-01T21:01:53;7.73;;;5.20;;
6928;SDS011;3504;52.616;13.238;2023-01-01T21:06:54;10.53;;;5.70;;
6928;SDS011;3504;52.616;13.238;2023-01-01T21:11:55;9.80;;;6.07;;
6928;SDS011;3504;52.616;13.238;2023-01-01T21:16:55;7.30;;;5.60;;
6928;SDS011;3504;52.616;13.238;2023-01-01T21:21:56;8.83;;;5.77;;
6928;SDS011;3504;52.616;13.238;2023-01-01T21:27:04;7.90;;;5.30;;
6928;SDS011;3504;52.616;13.238;2023-01-01T21:32:20;9.83;;;5.73;;
6928;SDS011;3504;52.616;13.238;2023-01-01T21:37:32;11.60;;;6.13;;
6928;SDS011;3504;52.616;13.238;2023-01-01T21:53:19;11.97;;;6.53;;
6928;SDS011;3504;52.616;13.238;2023-01-01T21:58:24;14.50;;;6.90;;
6928;SDS011;3504;52.616;13.238;2023-01-01T22:03:59;7.63;;;5.17;;
6928;SDS011;3504;52.616;13.238;2023-01-01T22:09:17;11.53;;;5.17;;
6928;SDS011;3504;52.616;13.238;2023-01-01T22:14:36;9.67;;;5.60;;
6928;SDS011;3504;52.616;13.238;2023-01-01T22:19:39;7.07;;;4.40;;
6928;SDS011;3504;52.616;13.238;2023-01-01T22:24:43;10.50;;;5.00;;
6928;SDS011;3504;52.616;13.238;2023-01-01T22:29:52;8.93;;;4.60;;
6928;SDS011;3504;52.616;13.238;2023-01-01T22:35:12;7.83;;;4.73;;
6928;SDS011;3504;52.616;13.238;2023-01-01T22:40:32;5.97;;;4.23;;
6928;SDS011;3504;52.616;13.238;2023-01-01T22:45:42;8.80;;;4.70;;
6928;SDS011;3504;52.616;13.238;2023-01-01T22:50:46;8.53;;;4.90;;
6928;SDS011;3504;52.616;13.238;2023-01-01T22:55:47;10.27;;;4.83;;
6928;SDS011;3504;52.616;13.238;2023-01-01T23:00:48;5.87;;;4.30;;
6928;SDS011;3504;52.616;13.238;2023-01-01T23:05:48;9.73;;;4.73;;
6928;SDS011;3504;52.616;13.238;2023-01-01T23:10:51;9.57;;;4.93;;
6928;SDS011;3504;52.616;13.238;2023-01-01T23:15:52;9.50;;;4.30;;
6928;SDS011;3504;52.616;13.238;2023-01-01T23:21:05;11.70;;;4.70;;
6928;SDS011;3504;52.616;13.238;2023-01-01T23:26:13;9.60;;;4.53;;
6928;SDS011;3504;52.616;13.238;2023-01-01T23:31:14;9.20;;;4.87;;
6928;SDS011;3504;52.616;13.238;2023-01-01T23:36:16;9.93;;;5.50;;
6928;SDS011;3504;52.616;13.238;2023-01-01T23:41:16;13.33;;;5.80;;
6928;SDS011;3504;52.616;13.238;2023-01-01T23:46:17;11.67;;;6.37;;
6928;SDS011;3504;52.616;13.238;2023-01-01T23:51:18;10.30;;;6.07;;
6928;SDS011;3504;52.616;13.238;2023-01-01T23:56:19;11.63;;;7.17;;
